createdAt,value
2023-03-26T00:02:06.031Z,100.00
2023-03-26T00:04:34.660Z,99.19
2023-03-26T00:07:03.148Z,98.36
2023-03-26T00:09:31.298Z,97.26
2023-03-26T00:11:59.230Z,97.62
2023-03-26T00:14:29.169Z,97.65
2023-03-26T00:16:57.172Z,98.00
2023-03-26T00:19:25.387Z,98.99
2023-03-26T00:21:53.374Z,97.79
2023-03-26T00:24:21.542Z,97.83
2023-03-26T00:26:53.592Z,97.74
2023-03-26T00:29:23.068Z,98.87
2023-03-26T00:31:52.529Z,98.90
2023-03-26T00:34:23.026Z,98.60
2023-03-26T00:36:54.359Z,99.20
2023-03-26T00:39:24.120Z,100.00
2023-03-26T00:41:54.516Z,100.00
2023-03-26T00:44:23.269Z,100.00
2023-03-26T00:46:52.710Z,100.00
2023-03-26T00:49:20.728Z,100.00
2023-03-26T00:51:48.641Z,100.00
2023-03-26T00:54:16.685Z,100.00
2023-03-26T00:56:44.733Z,100.00
2023-03-26T00:59:12.892Z,99.79
2023-03-26T01:01:40.933Z,100.00
2023-03-26T01:04:37.745Z,100.00
2023-03-26T01:07:13.422Z,99.07
2023-03-26T01:09:45.248Z,98.42
2023-03-26T01:12:17.236Z,97.62
2023-03-26T01:14:46.209Z,97.77
2023-03-26T01:17:14.883Z,97.41
2023-03-26T01:19:52.614Z,98.12
2023-03-26T01:22:22.853Z,96.93
2023-03-26T01:24:56.310Z,96.21
2023-03-26T01:27:38.946Z,95.18
2023-03-26T01:30:14.949Z,95.04
2023-03-26T01:33:00.763Z,94.19
2023-03-26T01:35:43.876Z,93.25
2023-03-26T01:38:28.753Z,92.41
2023-03-26T01:41:01.915Z,92.12
2023-03-26T01:43:37.498Z,92.31
2023-03-26T01:46:10.147Z,92.24
2023-03-26T01:48:40.621Z,91.22
2023-03-26T01:51:11.476Z,89.47
2023-03-26T01:53:43.726Z,88.87
2023-03-26T01:56:19.225Z,87.82
2023-03-26T01:59:01.536Z,86.95
2023-03-26T02:01:34.182Z,86.35
2023-03-26T02:04:09.913Z,86.07
2023-03-26T02:06:44.524Z,85.54
2023-03-26T02:09:16.035Z,85.13
2023-03-26T02:11:47.454Z,83.57
2023-03-26T02:14:16.396Z,81.88
2023-03-26T02:16:47.142Z,80.88
2023-03-26T02:19:21.967Z,80.02
2023-03-26T02:21:51.464Z,78.75
2023-03-26T02:24:20.106Z,78.09
2023-03-26T02:26:49.500Z,78.05
2023-03-26T02:29:20.593Z,77.81
2023-03-26T02:31:49.157Z,77.67
2023-03-26T02:34:17.584Z,77.09
2023-03-26T02:36:45.536Z,76.49
2023-03-26T02:39:14.412Z,75.70
2023-03-26T02:41:42.446Z,74.55
2023-03-26T02:44:11.786Z,73.70
2023-03-26T02:46:39.670Z,73.25
2023-03-26T02:49:08.246Z,72.92
2023-03-26T02:51:37.546Z,72.71
2023-03-26T02:54:07.040Z,71.71
2023-03-26T02:56:35.313Z,71.53
2023-03-26T02:59:03.358Z,71.11
2023-03-26T03:01:35.108Z,71.11
2023-03-26T03:04:04.201Z,70.61
2023-03-26T03:06:32.518Z,70.85
2023-03-26T03:09:03.334Z,70.75
2023-03-26T03:11:31.392Z,69.18
2023-03-26T03:13:59.319Z,69.42
2023-03-26T03:16:27.558Z,69.56
2023-03-26T03:18:58.269Z,69.42
2023-03-26T03:21:28.103Z,68.87
2023-03-26T03:23:56.406Z,68.41
2023-03-26T03:26:30.133Z,67.91
2023-03-26T03:28:59.232Z,67.75
2023-03-26T03:31:28.509Z,67.61
2023-03-26T03:33:57.904Z,67.13
2023-03-26T03:36:27.976Z,66.84
2023-03-26T03:38:55.980Z,66.87
2023-03-26T03:41:23.924Z,66.89
2023-03-26T03:43:51.934Z,66.59
2023-03-26T03:46:19.850Z,67.03
2023-03-26T03:48:49.945Z,66.51
2023-03-26T03:51:19.389Z,66.32
2023-03-26T03:53:48.209Z,65.81
2023-03-26T03:56:19.286Z,65.42
2023-03-26T03:58:47.504Z,66.00
2023-03-26T04:01:17.014Z,65.79
2023-03-26T04:03:46.511Z,65.78
2023-03-26T04:06:18.819Z,66.18
2023-03-26T04:08:48.469Z,66.04
2023-03-26T04:11:16.502Z,65.55
2023-03-26T04:13:44.521Z,66.30
2023-03-26T04:16:12.805Z,66.39
2023-03-26T04:18:40.867Z,66.69
2023-03-26T04:21:08.987Z,67.03
2023-03-26T04:23:36.982Z,67.34
2023-03-26T04:26:10.538Z,66.99
2023-03-26T04:28:46.538Z,67.00
2023-03-26T04:31:17.184Z,67.59
2023-03-26T04:33:47.493Z,67.30
2023-03-26T04:36:16.872Z,67.24
2023-03-26T04:38:49.022Z,66.88
2023-03-26T04:41:18.697Z,66.63
2023-03-26T04:43:50.558Z,66.34
2023-03-26T04:46:21.718Z,66.64
2023-03-26T04:48:50.125Z,66.74
2023-03-26T04:51:19.492Z,66.87
2023-03-26T04:53:52.720Z,66.57
2023-03-26T04:56:34.205Z,66.59
2023-03-26T04:59:03.140Z,66.25
2023-03-26T05:01:31.180Z,65.36
2023-03-26T05:03:59.649Z,64.96
2023-03-26T05:06:30.490Z,64.19
2023-03-26T05:08:58.424Z,63.81
2023-03-26T05:11:27.759Z,64.15
2023-03-26T05:13:57.016Z,63.29
2023-03-26T05:16:25.519Z,62.96
2023-03-26T05:18:54.083Z,62.21
2023-03-26T05:21:22.459Z,63.63
2023-03-26T05:23:50.498Z,62.82
2023-03-26T05:26:18.742Z,62.86
2023-03-26T05:28:48.124Z,63.69
2023-03-26T05:31:16.901Z,62.95
2023-03-26T05:33:44.916Z,62.87
2023-03-26T05:36:15.405Z,63.31
2023-03-26T05:38:47.335Z,61.71
2023-03-26T05:41:15.389Z,59.53
2023-03-26T05:43:44.902Z,56.54
2023-03-26T05:46:14.736Z,57.26
2023-03-26T05:48:42.792Z,56.75
2023-03-26T05:51:12.376Z,56.41
2023-03-26T05:53:40.454Z,56.92
2023-03-26T05:56:09.462Z,57.17
2023-03-26T05:58:37.991Z,55.53
2023-03-26T06:01:08.436Z,55.02
2023-03-26T06:03:39.378Z,52.78
2023-03-26T06:06:09.382Z,53.44
2023-03-26T06:08:37.505Z,53.05
2023-03-26T06:11:08.233Z,52.42
2023-03-26T06:13:36.377Z,52.49
2023-03-26T06:16:04.362Z,50.58
2023-03-26T06:18:32.390Z,49.08
2023-03-26T06:21:01.770Z,48.11
2023-03-26T06:23:29.768Z,47.71
2023-03-26T06:25:57.706Z,47.56
2023-03-26T06:28:26.378Z,48.39
2023-03-26T06:30:54.803Z,48.91
2023-03-26T06:33:24.583Z,48.45
2023-03-26T06:35:52.716Z,48.34
2023-03-26T06:38:22.001Z,48.59
2023-03-26T06:40:50.041Z,49.06
2023-03-26T06:43:18.099Z,49.47
2023-03-26T06:45:46.060Z,48.62
2023-03-26T06:48:14.022Z,49.50
2023-03-26T06:50:41.989Z,47.94
2023-03-26T06:53:11.343Z,46.45
2023-03-26T06:55:40.662Z,45.95
2023-03-26T06:58:08.666Z,47.00
2023-03-26T07:00:36.638Z,46.52
2023-03-26T07:03:04.892Z,45.67
2023-03-26T07:05:33.149Z,45.73
2023-03-26T07:08:01.077Z,45.54
2023-03-26T07:10:29.045Z,44.80
2023-03-26T07:12:58.336Z,44.20
2023-03-26T07:15:26.325Z,43.60
2023-03-26T07:17:54.281Z,43.72
2023-03-26T07:20:22.649Z,41.85
2023-03-26T07:22:51.178Z,41.51
2023-03-26T07:25:19.840Z,41.45
2023-03-26T07:27:59.337Z,41.66
2023-03-26T07:30:35.564Z,41.44
2023-03-26T07:33:08.879Z,40.89
2023-03-26T07:35:42.821Z,39.81
2023-03-26T07:38:33.305Z,39.33
2023-03-26T07:41:09.761Z,37.43
2023-03-26T07:43:54.799Z,36.29
2023-03-26T07:46:29.878Z,36.11
2023-03-26T07:49:00.572Z,36.67
2023-03-26T07:51:29.431Z,33.80
2023-03-26T07:54:00.509Z,34.99
2023-03-26T07:56:36.021Z,36.04
2023-03-26T07:59:19.006Z,36.09
2023-03-26T08:02:00.652Z,35.78
2023-03-26T08:04:56.788Z,34.33
2023-03-26T08:07:35.108Z,34.60
2023-03-26T08:10:13.513Z,34.02
2023-03-26T08:12:51.912Z,34.11
2023-03-26T08:15:29.544Z,34.89
2023-03-26T08:18:07.817Z,35.01
2023-03-26T08:20:41.575Z,35.99
2023-03-26T08:23:18.201Z,35.44
2023-03-26T08:25:59.328Z,36.42
2023-03-26T08:28:39.057Z,35.67
2023-03-26T08:31:09.326Z,36.72
2023-03-26T08:33:40.765Z,37.67
2023-03-26T08:36:10.013Z,36.93
2023-03-26T08:38:37.950Z,35.75
2023-03-26T08:41:50.012Z,34.74
2023-03-26T08:45:12.018Z,35.10
2023-03-26T08:48:24.724Z,33.81
2023-03-26T08:51:27.885Z,33.08
2023-03-26T08:54:19.861Z,32.13
2023-03-26T08:56:58.505Z,31.23
2023-03-26T09:00:15.703Z,32.14
2023-03-26T09:03:18.905Z,31.93
2023-03-26T09:06:13.701Z,30.97
2023-03-26T09:09:18.781Z,31.37
2023-03-26T09:12:10.889Z,28.94
2023-03-26T09:15:15.338Z,29.79
2023-03-26T09:18:17.835Z,30.40
2023-03-26T09:21:29.961Z,29.39
2023-03-26T09:24:27.741Z,27.88
2023-03-26T09:27:13.063Z,28.85
2023-03-26T09:30:33.709Z,29.41
2023-03-26T09:33:35.381Z,28.74
2023-03-26T09:36:29.714Z,28.92
2023-03-26T09:39:10.024Z,28.62
2023-03-26T09:41:44.740Z,28.83
2023-03-26T09:44:44.873Z,28.68
2023-03-26T09:47:44.984Z,28.71
2023-03-26T09:50:35.699Z,28.49
2023-03-26T09:53:20.017Z,29.44
2023-03-26T09:56:04.708Z,29.02
2023-03-26T09:59:25.393Z,29.11
2023-03-26T10:02:11.652Z,28.14
2023-03-26T10:05:10.955Z,28.95
2023-03-26T10:08:07.162Z,29.67
2023-03-26T10:10:44.297Z,28.90
2023-03-26T10:13:27.518Z,28.52
2023-03-26T10:16:06.805Z,28.93
2023-03-26T10:18:48.848Z,29.67
2023-03-26T10:21:28.580Z,29.86
2023-03-26T10:24:12.327Z,29.71
2023-03-26T10:27:09.677Z,29.44
2023-03-26T10:30:04.864Z,29.19
2023-03-26T10:32:44.247Z,28.19
2023-03-26T10:35:25.904Z,28.31
2023-03-26T10:38:07.209Z,28.09
2023-03-26T10:40:44.793Z,28.67
2023-03-26T10:44:05.248Z,27.60
2023-03-26T10:47:01.268Z,27.70
2023-03-26T10:49:57.054Z,28.21
2023-03-26T10:52:28.926Z,27.13
2023-03-26T10:54:59.817Z,27.87
2023-03-26T10:57:39.523Z,28.44
2023-03-26T11:00:17.211Z,27.89
2023-03-26T11:02:55.798Z,27.70
2023-03-26T11:05:52.818Z,27.11
2023-03-26T11:08:32.621Z,25.99
2023-03-26T11:11:13.070Z,26.35
2023-03-26T11:13:51.008Z,27.14
2023-03-26T11:16:26.858Z,26.50
2023-03-26T11:19:00.545Z,26.78
2023-03-26T11:21:34.845Z,26.22
2023-03-26T11:24:38.856Z,26.28
2023-03-26T11:27:15.373Z,26.71
2023-03-26T11:29:52.985Z,26.29
2023-03-26T11:32:23.838Z,26.00
2023-03-26T11:35:02.466Z,26.36
2023-03-26T11:37:35.121Z,27.09
2023-03-26T11:40:12.576Z,26.61
2023-03-26T11:42:43.155Z,26.05
2023-03-26T11:45:18.449Z,25.90
2023-03-26T11:47:50.515Z,25.60
2023-03-26T11:50:22.902Z,26.25
2023-03-26T11:52:50.976Z,25.36
2023-03-26T11:55:20.798Z,25.19
2023-03-26T11:57:54.325Z,25.82
2023-03-26T12:00:27.590Z,26.18
2023-03-26T12:02:59.306Z,26.32
2023-03-26T12:05:31.465Z,26.37
2023-03-26T12:08:01.031Z,25.74
2023-03-26T12:10:37.761Z,27.25
2023-03-26T12:13:29.285Z,26.26
2023-03-26T12:15:59.762Z,26.20
2023-03-26T12:18:29.477Z,26.78
2023-03-26T12:21:08.726Z,26.08
2023-03-26T12:23:51.784Z,26.48
2023-03-26T12:26:30.339Z,26.28
2023-03-26T12:28:58.247Z,26.67
2023-03-26T12:31:26.557Z,26.58
2023-03-26T12:34:07.778Z,24.07
2023-03-26T12:36:36.377Z,24.24
2023-03-26T12:40:10.040Z,25.42
2023-03-26T12:44:44.334Z,25.25
2023-03-26T12:45:17.117Z,25.61
2023-03-26T12:47:58.514Z,25.63
2023-03-26T12:50:43.099Z,24.88
2023-03-26T12:53:39.645Z,24.31
2023-03-26T12:56:21.500Z,24.84
2023-03-26T12:59:13.110Z,24.91
2023-03-26T13:01:51.881Z,24.24
2023-03-26T13:04:37.598Z,23.78
2023-03-26T13:07:15.933Z,23.31
2023-03-26T13:10:00.860Z,24.00
2023-03-26T13:12:40.992Z,23.79
2023-03-26T13:15:26.014Z,23.89
2023-03-26T13:18:07.615Z,23.69
2023-03-26T13:20:49.016Z,22.68
2023-03-26T13:23:28.150Z,21.68
2023-03-26T13:26:07.233Z,20.83
2023-03-26T13:28:44.999Z,21.52
2023-03-26T13:31:21.947Z,22.76
2023-03-26T13:34:01.536Z,22.86
2023-03-26T13:36:40.171Z,23.34
2023-03-26T13:39:19.838Z,22.61
2023-03-26T13:42:15.898Z,23.29
2023-03-26T13:45:04.490Z,22.55
2023-03-26T13:47:39.367Z,22.08
2023-03-26T13:50:16.005Z,22.35
2023-03-26T13:52:47.032Z,22.58
2023-03-26T13:55:23.384Z,22.83
2023-03-26T13:57:59.981Z,22.38
2023-03-26T14:00:32.580Z,22.39
2023-03-26T14:03:11.682Z,22.26
2023-03-26T14:05:43.515Z,22.35
2023-03-26T14:08:21.048Z,22.54
2023-03-26T14:10:53.023Z,23.13
2023-03-26T14:13:27.953Z,23.51
2023-03-26T14:15:59.038Z,24.14
2023-03-26T14:18:36.921Z,23.70
2023-03-26T14:21:26.633Z,23.58
2023-03-26T14:24:14.486Z,23.69
2023-03-26T14:27:10.649Z,23.44
2023-03-26T14:29:56.705Z,23.33
2023-03-26T14:32:51.630Z,23.67
2023-03-26T14:35:37.810Z,23.38
2023-03-26T14:38:33.836Z,23.32
2023-03-26T14:41:19.208Z,22.73
2023-03-26T14:44:49.114Z,23.20
2023-03-26T14:47:19.036Z,23.88
2023-03-26T14:50:31.547Z,23.08
2023-03-26T14:53:06.802Z,23.81
2023-03-26T14:55:53.273Z,23.59
2023-03-26T14:58:53.900Z,23.70
2023-03-26T15:01:28.906Z,24.04
2023-03-26T15:04:43.697Z,23.48
2023-03-26T15:07:52.673Z,23.95
2023-03-26T15:10:51.042Z,24.73
2023-03-26T15:13:52.927Z,24.81
2023-03-26T15:16:57.870Z,24.59
2023-03-26T15:19:56.890Z,24.76
2023-03-26T15:23:00.913Z,24.33
2023-03-26T15:26:11.215Z,23.84
2023-03-26T15:29:17.363Z,23.53
2023-03-26T15:32:26.081Z,22.87
2023-03-26T15:35:25.847Z,22.32
2023-03-26T15:38:46.996Z,22.52
2023-03-26T15:41:27.919Z,22.96
2023-03-26T15:44:29.047Z,23.10
2023-03-26T15:47:17.222Z,23.25
2023-03-26T15:49:52.246Z,24.01
2023-03-26T15:52:29.113Z,23.79
2023-03-26T15:55:04.095Z,23.96
2023-03-26T15:57:41.089Z,24.13
2023-03-26T16:00:22.882Z,23.80
2023-03-26T16:03:17.657Z,24.14
2023-03-26T16:06:10.877Z,24.77
2023-03-26T16:08:47.242Z,25.29
2023-03-26T16:11:15.737Z,25.52
2023-03-26T16:13:51.144Z,25.91
2023-03-26T16:16:24.815Z,26.38
2023-03-26T16:19:20.204Z,26.68
2023-03-26T16:21:57.718Z,26.52
2023-03-26T16:24:29.281Z,27.18
2023-03-26T16:27:29.033Z,26.96
2023-03-26T16:30:30.313Z,27.04
2023-03-26T16:33:09.597Z,27.80
2023-03-26T16:36:05.676Z,27.32
2023-03-26T16:38:50.664Z,28.05
2023-03-26T16:41:20.684Z,28.04
2023-03-26T16:43:57.549Z,28.40
2023-03-26T16:46:32.543Z,28.71
2023-03-26T16:49:08.559Z,28.50
2023-03-26T16:52:01.520Z,28.50
2023-03-26T16:54:42.937Z,28.88
2023-03-26T16:57:23.737Z,29.54
2023-03-26T17:00:31.484Z,29.25
2023-03-26T17:03:17.000Z,29.08
2023-03-26T17:06:02.210Z,28.61
2023-03-26T17:08:42.009Z,29.06
2023-03-26T17:11:23.007Z,29.05
2023-03-26T17:14:04.326Z,29.40
2023-03-26T17:16:36.027Z,29.56
2023-03-26T17:19:19.149Z,28.61
2023-03-26T17:21:56.750Z,29.85
2023-03-26T17:24:35.041Z,29.96
2023-03-26T17:27:09.893Z,30.48
2023-03-26T17:30:00.862Z,30.40
2023-03-26T17:32:54.327Z,30.96
2023-03-26T17:35:39.034Z,30.77
2023-03-26T17:38:32.973Z,30.93
2023-03-26T17:41:01.455Z,31.64
2023-03-26T17:43:42.772Z,31.60
2023-03-26T17:46:23.295Z,31.38
2023-03-26T17:48:57.896Z,31.96
2023-03-26T17:51:42.022Z,32.50
2023-03-26T17:54:18.732Z,32.36
2023-03-26T17:56:47.981Z,32.38
2023-03-26T17:59:23.419Z,33.47
2023-03-26T18:01:55.862Z,33.03
2023-03-26T18:04:31.514Z,33.43
2023-03-26T18:07:19.007Z,33.54
2023-03-26T18:10:05.030Z,34.02
2023-03-26T18:13:23.922Z,34.52
2023-03-26T18:16:06.197Z,34.36
2023-03-26T18:18:38.534Z,34.35
2023-03-26T18:21:08.258Z,34.95
2023-03-26T18:23:40.516Z,34.80
2023-03-26T18:26:14.893Z,35.29
2023-03-26T18:28:45.863Z,35.54
2023-03-26T18:31:20.497Z,35.92
2023-03-26T18:33:50.673Z,36.05
2023-03-26T18:36:19.754Z,36.02
2023-03-26T18:38:49.873Z,36.95
2023-03-26T18:41:30.748Z,36.71
2023-03-26T18:44:03.038Z,36.28
2023-03-26T18:46:31.243Z,36.61
2023-03-26T18:49:03.096Z,36.31
2023-03-26T18:51:33.024Z,35.92
2023-03-26T18:54:07.837Z,36.26
2023-03-26T18:56:38.233Z,36.26
2023-03-26T18:59:08.738Z,36.54
2023-03-26T19:01:38.539Z,36.78
2023-03-26T19:04:09.133Z,37.70
2023-03-26T19:06:42.006Z,37.47
2023-03-26T19:09:28.224Z,37.40
2023-03-26T19:12:06.017Z,37.81
2023-03-26T19:14:36.888Z,37.82
2023-03-26T19:17:08.317Z,37.81
2023-03-26T19:19:38.641Z,37.78
2023-03-26T19:22:12.576Z,37.78
2023-03-26T19:24:43.102Z,38.40
2023-03-26T19:27:12.685Z,38.89
2023-03-26T19:29:43.360Z,39.04
2023-03-26T19:32:18.276Z,39.92
2023-03-26T19:34:47.222Z,40.21
2023-03-26T19:37:21.558Z,40.26
2023-03-26T19:39:53.144Z,40.22
2023-03-26T19:42:26.583Z,39.95
2023-03-26T19:44:55.425Z,39.93
2023-03-26T19:50:25.563Z,39.72
2023-03-26T19:51:18.551Z,40.04
2023-03-26T19:53:16.722Z,39.19
2023-03-26T19:55:56.501Z,39.01
2023-03-26T19:58:26.059Z,39.58
2023-03-26T20:00:56.282Z,39.87
2023-03-26T20:03:29.030Z,39.76
2023-03-26T20:05:57.443Z,40.52
2023-03-26T20:08:27.295Z,42.02
2023-03-26T20:10:58.953Z,41.89
2023-03-26T20:13:27.452Z,41.88
2023-03-26T20:16:05.683Z,42.26
2023-03-26T20:18:34.439Z,43.23
2023-03-26T20:21:02.533Z,42.54
2023-03-26T20:23:30.464Z,42.00
2023-03-26T20:25:59.791Z,42.29
2023-03-26T20:28:27.748Z,41.47
2023-03-26T20:30:55.921Z,41.28
2023-03-26T20:33:27.128Z,41.79
2023-03-26T20:35:56.873Z,42.61
2023-03-26T20:38:39.111Z,41.94
2023-03-26T20:41:13.315Z,40.75
2023-03-26T20:43:41.328Z,40.95
2023-03-26T20:46:14.980Z,41.58
2023-03-26T20:48:42.951Z,42.12
2023-03-26T20:51:12.650Z,41.86
2023-03-26T20:53:41.655Z,41.60
2023-03-26T20:56:15.509Z,41.92
2023-03-26T20:58:44.601Z,41.88
2023-03-26T21:01:12.837Z,41.86
2023-03-26T21:03:42.180Z,41.48
2023-03-26T21:06:13.621Z,42.26
2023-03-26T21:08:42.440Z,42.61
2023-03-26T21:11:26.690Z,42.50
2023-03-26T21:14:01.140Z,42.43
2023-03-26T21:16:29.608Z,42.82
2023-03-26T21:18:59.021Z,40.69
2023-03-26T21:21:42.838Z,40.72
2023-03-26T21:24:22.834Z,43.30
2023-03-26T21:26:57.632Z,44.96
2023-03-26T21:29:26.056Z,46.67
2023-03-26T21:31:55.076Z,47.45
2023-03-26T21:34:23.749Z,47.98
2023-03-26T21:36:52.659Z,48.56
2023-03-26T21:39:21.108Z,49.34
2023-03-26T21:42:05.377Z,50.18
2023-03-26T21:44:36.103Z,51.47
2023-03-26T21:47:04.570Z,52.61
2023-03-26T21:49:33.138Z,53.17
2023-03-26T21:52:01.655Z,53.82
2023-03-26T21:54:31.621Z,53.96
2023-03-26T21:57:25.556Z,54.79
2023-03-26T22:00:08.246Z,54.19
2023-03-26T22:02:43.292Z,54.08
2023-03-26T22:05:16.323Z,53.11
2023-03-26T22:07:55.347Z,52.73
2023-03-26T22:10:23.529Z,51.87
2023-03-26T22:12:51.479Z,52.71
2023-03-26T22:15:21.949Z,53.27
2023-03-26T22:17:53.841Z,53.27
2023-03-26T22:20:24.639Z,54.18
2023-03-26T22:22:53.442Z,53.82
2023-03-26T22:25:22.820Z,53.84
2023-03-26T22:27:52.100Z,54.52
2023-03-26T22:30:21.891Z,53.81
2023-03-26T22:32:50.277Z,54.73
2023-03-26T22:35:18.359Z,55.77
2023-03-26T22:37:47.468Z,57.59
2023-03-26T22:40:16.228Z,58.06
2023-03-26T22:42:44.100Z,58.20
2023-03-26T22:45:12.797Z,58.03
2023-03-26T22:47:42.205Z,58.50
2023-03-26T22:50:11.118Z,58.77
2023-03-26T22:52:40.743Z,59.11
2023-03-26T22:55:11.095Z,58.45
2023-03-26T22:57:39.192Z,59.30
2023-03-26T23:00:16.178Z,58.66
2023-03-26T23:02:47.377Z,59.23
2023-03-26T23:05:17.414Z,60.05
2023-03-26T23:07:46.048Z,59.47
2023-03-26T23:10:14.978Z,57.91
2023-03-26T23:12:42.886Z,57.23
2023-03-26T23:15:11.825Z,57.59
2023-03-26T23:17:40.345Z,57.50
2023-03-26T23:20:15.472Z,57.01
2023-03-26T23:22:43.760Z,57.35
2023-03-26T23:25:12.163Z,57.06
2023-03-26T23:27:40.306Z,57.75
2023-03-26T23:30:10.785Z,57.05
2023-03-26T23:32:38.868Z,57.02
2023-03-26T23:35:07.796Z,56.63
2023-03-26T23:37:37.095Z,56.56
2023-03-26T23:40:10.215Z,56.26
2023-03-26T23:42:38.552Z,55.49
2023-03-26T23:45:08.545Z,56.39
2023-03-26T23:47:37.345Z,56.33
2023-03-26T23:50:08.181Z,56.03
2023-03-26T23:52:37.702Z,56.29
2023-03-26T23:55:06.263Z,56.76
2023-03-26T23:57:34.223Z,57.29
